Time;durP1;ratioP1;P1;durP2;ratioP2;P2;SDS_P1;SDS_P2;PMS_P1;PMS_P2;Temp;Humidity;BMP_temperature;BMP_pressure;BME280_temperature;BME280_humidity;BME280_pressure;Samples;Min_cycle;Max_cycle;Signal;HPM_P1;HPM_P2
2022/09/25 00:01:01;;;;;;;6.10;2.38;;;10.90;99.90;;;;;;5118530;27;37863;-60
2022/09/25 00:03:31;;;;;;;8.43;2.08;;;10.90;99.90;;;;;;5118556;27;38186;-58
2022/09/25 00:06:03;;;;;;;5.68;1.75;;;10.90;99.90;;;;;;5118955;27;38094;-58
2022/09/25 00:08:31;;;;;;;5.53;1.90;;;10.90;99.90;;;;;;5118572;27;38183;-58
2022/09/25 00:10:58;;;;;;;8.85;1.77;;;10.90;99.90;;;;;;5117720;27;37468;-58
2022/09/25 00:13:26;;;;;;;7.63;1.45;;;10.90;99.90;;;;;;5116999;27;37495;-59
2022/09/25 00:15:55;;;;;;;8.40;1.33;;;10.90;99.90;;;;;;5117235;27;37592;-59
2022/09/25 00:21:06;;;;;;;4.30;1.33;;;10.80;99.90;;;;;;5117596;27;37436;-60
2022/09/25 00:23:34;;;;;;;7.25;1.33;;;10.80;99.90;;;;;;5117987;27;38694;-58
2022/09/25 00:26:02;;;;;;;6.03;1.60;;;10.80;99.90;;;;;;5118315;27;35368;-58
2022/09/25 00:28:30;;;;;;;7.13;1.30;;;10.80;99.90;;;;;;5115769;27;39028;-59
2022/09/25 00:30:58;;;;;;;5.18;1.15;;;10.70;99.90;;;;;;5117665;27;37853;-58
2022/09/25 00:33:27;;;;;;;4.72;1.30;;;10.70;99.90;;;;;;5118243;27;38515;-59
2022/09/25 00:35:54;;;;;;;9.98;1.30;;;10.70;99.90;;;;;;5118149;27;36708;-59
2022/09/25 00:38:23;;;;;;;6.90;1.88;;;10.70;99.90;;;;;;5117835;27;38024;-59
2022/09/25 00:40:50;;;;;;;3.45;1.10;;;10.70;99.90;;;;;;5118317;27;37742;-59
2022/09/25 00:43:36;;;;;;;7.75;1.58;;;10.70;99.90;;;;;;5118420;27;36140;-58
2022/09/25 00:46:08;;;;;;;11.30;1.83;;;10.70;99.90;;;;;;5117254;27;36776;-58
2022/09/25 00:48:37;;;;;;;7.45;1.55;;;10.70;99.90;;;;;;5112211;27;36448;-58
2022/09/25 00:51:05;;;;;;;8.77;1.83;;;10.70;99.90;;;;;;5116932;27;36491;-58
2022/09/25 00:53:39;;;;;;;10.93;2.67;;;10.70;99.90;;;;;;5117768;27;20083;-58
2022/09/25 00:56:09;;;;;;;10.52;4.10;;;10.70;99.90;;;;;;5117716;27;37295;-59
2022/09/25 00:58:39;;;;;;;12.18;4.20;;;10.70;99.90;;;;;;5117442;27;39024;-59
2022/09/25 01:01:07;;;;;;;7.32;2.38;;;10.70;99.90;;;;;;5116897;27;38795;-59
2022/09/25 01:03:35;;;;;;;6.32;1.35;;;10.80;99.90;;;;;;5117522;27;37838;-59
2022/09/25 01:06:03;;;;;;;8.40;1.50;;;10.70;99.90;;;;;;5117309;27;38072;-59
2022/09/25 01:08:32;;;;;;;11.35;2.50;;;10.80;99.90;;;;;;5117516;27;37541;-60
2022/09/25 01:11:01;;;;;;;4.25;1.25;;;10.70;99.90;;;;;;5117643;27;39160;-59
2022/09/25 01:13:29;;;;;;;7.10;1.77;;;10.80;99.90;;;;;;5116738;27;38139;-59
2022/09/25 01:16:03;;;;;;;7.40;1.70;;;10.80;99.90;;;;;;5117344;27;38950;-59
2022/09/25 01:18:47;;;;;;;8.30;1.55;;;10.80;99.90;;;;;;5117346;27;36304;-60
2022/09/25 01:21:27;;;;;;;6.53;1.50;;;10.80;99.90;;;;;;5117692;27;37551;-59
2022/09/25 01:24:41;;;;;;;4.72;1.33;;;10.70;99.90;;;;;;5116998;27;38755;-59
2022/09/25 01:27:30;;;;;;;6.95;1.48;;;10.70;99.90;;;;;;5112222;27;37065;-59
2022/09/25 01:30:05;;;;;;;7.65;1.83;;;10.70;99.90;;;;;;5117826;27;36328;-59
2022/09/25 01:32:39;;;;;;;6.55;2.05;;;10.60;99.90;;;;;;5116364;27;36655;-59
2022/09/25 01:35:10;;;;;;;;;;;10.60;99.90;;;;;;5117907;27;37253;-59
2022/09/25 01:37:44;;;;;;;5.57;1.75;;;10.60;99.90;;;;;;5117843;27;36879;-59
2022/09/25 01:40:15;;;;;;;7.20;1.63;;;10.60;99.90;;;;;;5117314;27;37675;-59
2022/09/25 01:42:49;;;;;;;8.13;1.55;;;10.60;99.90;;;;;;5113302;27;38962;-59
2022/09/25 01:45:23;;;;;;;6.78;1.80;;;10.60;99.90;;;;;;5117185;27;36159;-58
2022/09/25 01:47:52;;;;;;;7.13;1.90;;;10.60;99.90;;;;;;5114757;27;35521;-58
2022/09/25 01:50:25;;;;;;;6.85;1.80;;;10.60;99.90;;;;;;5117389;27;36459;-58
2022/09/25 01:52:57;;;;;;;7.05;2.03;;;10.60;99.90;;;;;;5116751;27;37800;-58
2022/09/25 01:55:29;;;;;;;5.93;1.40;;;10.60;99.90;;;;;;5117302;27;37084;-58
2022/09/25 01:58:04;;;;;;;10.68;2.05;;;10.70;99.90;;;;;;5117920;27;37079;-58
2022/09/25 02:00:35;;;;;;;8.68;1.50;;;10.70;99.90;;;;;;5117249;27;36605;-58
2022/09/25 02:03:10;;;;;;;6.40;1.30;;;10.60;99.90;;;;;;5116766;27;38428;-59
2022/09/25 02:05:44;;;;;;;7.53;1.40;;;10.60;99.90;;;;;;5116506;27;36370;-59
2022/09/25 02:08:18;;;;;;;9.27;1.20;;;10.60;99.90;;;;;;5117587;27;36448;-59
2022/09/25 02:10:49;;;;;;;7.20;1.52;;;10.60;99.90;;;;;;5117013;27;37315;-60
2022/09/25 02:13:19;;;;;;;6.00;1.42;;;10.60;99.90;;;;;;5117221;27;39229;-59
2022/09/25 02:15:53;;;;;;;4.85;1.33;;;10.60;99.90;;;;;;5116986;27;37354;-59
2022/09/25 02:21:14;;;;;;;6.40;1.15;;;10.70;99.90;;;;;;5117151;27;38785;-59
2022/09/25 02:23:49;;;;;;;5.95;1.40;;;10.70;99.90;;;;;;5116425;27;37885;-59
2022/09/25 02:26:24;;;;;;;9.05;1.65;;;10.70;99.90;;;;;;5116931;27;36956;-59
2022/09/25 02:28:53;;;;;;;6.35;1.30;;;10.60;99.90;;;;;;5115842;27;35411;-58
2022/09/25 02:31:25;;;;;;;6.90;1.40;;;10.60;99.90;;;;;;5115445;27;37672;-58
2022/09/25 02:33:52;;;;;;;4.55;1.10;;;10.60;99.90;;;;;;5116617;27;37983;-58
2022/09/25 02:36:22;;;;;;;5.75;1.33;;;10.60;99.90;;;;;;5117462;27;37210;-58
2022/09/25 02:38:51;;;;;;;5.00;1.38;;;10.50;99.90;;;;;;5119878;27;37769;-58
2022/09/25 02:41:29;;;;;;;4.07;1.20;;;10.60;99.90;;;;;;5120605;27;39304;-58
2022/09/25 02:44:08;;;;;;;7.07;1.45;;;10.60;99.90;;;;;;5120473;27;38316;-59
2022/09/25 02:46:47;;;;;;;8.27;1.38;;;10.60;99.90;;;;;;5119795;27;38513;-59
2022/09/25 02:49:20;;;;;;;9.93;1.63;;;10.60;99.90;;;;;;5119779;27;37001;-59
2022/09/25 02:51:55;;;;;;;6.35;1.23;;;10.60;99.90;;;;;;5119876;27;39497;-59
2022/09/25 02:54:28;;;;;;;6.55;1.27;;;10.60;99.90;;;;;;5118951;27;37859;-59
2022/09/25 02:57:04;;;;;;;5.82;1.42;;;10.50;99.90;;;;;;5119739;27;36383;-58
2022/09/25 02:59:37;;;;;;;5.50;1.42;;;10.60;99.90;;;;;;5119405;27;37061;-58
2022/09/25 03:02:08;;;;;;;5.32;1.25;;;10.40;99.90;;;;;;5119901;27;38635;-58
2022/09/25 03:04:37;;;;;;;5.60;1.30;;;10.50;99.90;;;;;;5119720;27;38278;-58
2022/09/25 03:07:05;;;;;;;5.55;1.25;;;10.50;99.90;;;;;;5119778;27;36285;-58
2022/09/25 03:09:34;;;;;;;6.70;1.20;;;10.50;99.90;;;;;;5119563;27;37611;-58
2022/09/25 03:12:03;;;;;;;9.35;1.80;;;10.50;99.90;;;;;;5119552;27;37473;-58
2022/09/25 03:14:30;;;;;;;5.15;1.30;;;10.50;99.90;;;;;;5119589;27;37889;-58
2022/09/25 03:17:00;;;;;;;7.20;1.27;;;10.50;99.90;;;;;;5118714;27;37356;-58
2022/09/25 03:19:29;;;;;;;4.88;1.20;;;10.50;99.90;;;;;;5119212;27;35291;-58
2022/09/25 03:21:56;;;;;;;8.10;1.50;;;10.50;99.90;;;;;;5120333;27;36399;-58
2022/09/25 03:24:24;;;;;;;7.07;1.40;;;10.50;99.90;;;;;;5119672;27;38693;-58
2022/09/25 03:26:52;;;;;;;8.00;1.60;;;10.50;99.90;;;;;;5119399;27;37891;-59
2022/09/25 03:29:20;;;;;;;9.27;2.58;;;10.50;99.90;;;;;;5116974;27;38898;-59
2022/09/25 03:31:48;;;;;;;6.75;1.40;;;10.60;99.90;;;;;;5118477;27;38935;-57
2022/09/25 03:34:17;;;;;;;5.53;1.35;;;10.60;99.90;;;;;;5119185;27;36463;-58
2022/09/25 03:36:46;;;;;;;8.63;1.50;;;10.60;99.90;;;;;;5117857;27;37424;-58
2022/09/25 03:39:16;;;;;;;5.43;1.15;;;10.60;99.90;;;;;;5118305;27;38952;-59
2022/09/25 03:41:43;;;;;;;3.25;1.50;;;10.60;99.90;;;;;;5117066;27;39244;-58
2022/09/25 03:44:11;;;;;;;5.95;1.15;;;10.60;99.90;;;;;;5118645;27;38904;-59
2022/09/25 03:46:38;;;;;;;5.40;1.58;;;10.60;99.90;;;;;;5118807;27;38813;-59
2022/09/25 03:49:06;;;;;;;4.10;1.38;;;10.60;99.90;;;;;;5116648;27;37271;-59
2022/09/25 03:51:34;;;;;;;6.72;1.35;;;10.60;99.90;;;;;;5118153;27;38989;-58
2022/09/25 03:54:03;;;;;;;5.85;1.40;;;10.50;99.90;;;;;;5117720;27;37608;-58
2022/09/25 03:56:31;;;;;;;4.35;1.30;;;10.40;99.90;;;;;;5118110;27;37223;-58
2022/09/25 03:58:59;;;;;;;6.35;1.60;;;10.40;99.90;;;;;;5117916;27;37155;-59
2022/09/25 04:01:28;;;;;;;4.80;1.38;;;10.40;99.90;;;;;;5117694;27;36337;-57
2022/09/25 04:03:55;;;;;;;5.18;1.38;;;10.30;99.90;;;;;;5117874;27;37677;-59
2022/09/25 04:06:25;;;;;;;5.82;1.92;;;10.30;99.90;;;;;;5118142;27;37284;-59
2022/09/25 04:08:53;;;;;;;7.28;1.40;;;10.40;99.90;;;;;;5118253;27;36909;-58
2022/09/25 04:11:23;;;;;;;4.35;1.20;;;10.40;99.90;;;;;;5117586;27;37553;-58
2022/09/25 04:13:51;;;;;;;4.57;1.27;;;10.30;99.90;;;;;;5118490;27;37633;-58
2022/09/25 04:16:19;;;;;;;5.13;1.10;;;10.30;99.90;;;;;;5116296;27;37826;-58
2022/09/25 04:18:47;;;;;;;5.07;1.52;;;10.30;99.90;;;;;;5117954;27;37683;-59
2022/09/25 04:21:15;;;;;;;6.05;1.48;;;10.30;99.90;;;;;;5117060;27;39548;-58
2022/09/25 04:24:46;;;;;;;5.15;1.55;;;10.30;99.90;;;;;;5117481;27;37763;-58
2022/09/25 04:26:32;;;;;;;6.38;1.48;;;10.20;99.90;;;;;;5117879;27;37914;-59
2022/09/25 04:29:00;;;;;;;4.45;1.10;;;10.20;99.90;;;;;;5117449;27;36934;-59
2022/09/25 04:31:27;;;;;;;5.38;1.42;;;10.20;99.90;;;;;;5114779;27;38073;-59
2022/09/25 04:33:54;;;;;;;3.55;1.20;;;10.20;99.90;;;;;;5117102;27;37906;-58
2022/09/25 04:36:21;;;;;;;5.13;1.55;;;10.20;99.90;;;;;;5116915;27;37184;-59
2022/09/25 04:38:49;;;;;;;5.40;1.20;;;10.20;99.90;;;;;;5118146;27;36461;-59
2022/09/25 04:41:18;;;;;;;11.15;2.65;;;10.20;99.90;;;;;;5117471;27;36190;-59
2022/09/25 04:43:47;;;;;;;6.32;1.23;;;10.30;99.90;;;;;;5117042;27;37793;-58
2022/09/25 04:46:16;;;;;;;4.55;1.40;;;10.20;99.90;;;;;;5117091;27;37838;-58
2022/09/25 04:48:45;;;;;;;5.82;1.58;;;10.20;99.90;;;;;;5116635;27;36508;-58
2022/09/25 04:51:13;;;;;;;7.38;1.10;;;10.20;99.90;;;;;;5116420;27;38833;-59
2022/09/25 04:53:41;;;;;;;7.60;1.05;;;10.20;99.90;;;;;;5116402;27;37809;-59
2022/09/25 04:56:10;;;;;;;5.05;1.30;;;10.20;99.90;;;;;;5116991;27;37137;-59
2022/09/25 04:58:37;;;;;;;5.55;1.20;;;10.20;99.90;;;;;;5116774;27;37334;-58
2022/09/25 05:01:08;;;;;;;6.53;1.15;;;10.20;99.90;;;;;;5116758;27;38745;-59
2022/09/25 05:03:36;;;;;;;4.90;1.40;;;10.20;99.90;;;;;;5117626;27;38604;-59
2022/09/25 05:06:03;;;;;;;5.18;1.27;;;10.20;99.90;;;;;;5117540;27;37449;-59
2022/09/25 05:08:31;;;;;;;7.03;1.50;;;10.20;99.90;;;;;;5117354;27;36662;-58
2022/09/25 05:10:58;;;;;;;5.60;1.30;;;10.20;99.90;;;;;;5114934;27;36266;-60
2022/09/25 05:13:26;;;;;;;5.25;1.00;;;10.10;99.90;;;;;;5117243;27;37759;-58
2022/09/25 05:15:55;;;;;;;5.80;1.10;;;10.20;99.90;;;;;;5116524;27;37478;-58
2022/09/25 05:18:24;;;;;;;7.22;1.38;;;10.10;99.90;;;;;;5117758;27;37152;-58
2022/09/25 05:20:53;;;;;;;4.10;1.17;;;10.10;99.90;;;;;;5116130;27;37595;-60
2022/09/25 05:23:21;;;;;;;7.00;1.00;;;10.10;99.90;;;;;;5116346;27;37956;-59
2022/09/25 05:25:52;;;;;;;5.10;1.55;;;10.10;99.90;;;;;;5116684;27;37926;-59
2022/09/25 05:28:19;;;;;;;3.40;1.20;;;10.10;99.90;;;;;;5116072;27;36744;-59
2022/09/25 05:30:46;;;;;;;6.13;0.93;;;10.10;99.90;;;;;;5116076;27;36361;-60
2022/09/25 05:33:13;;;;;;;7.03;0.98;;;10.10;99.90;;;;;;5115442;27;37593;-59
2022/09/25 05:35:42;;;;;;;3.42;0.75;;;10.10;99.90;;;;;;5115838;27;38385;-58
2022/09/25 05:38:09;;;;;;;5.65;1.08;;;10.10;99.90;;;;;;5116327;27;36459;-58
2022/09/25 05:40:37;;;;;;;4.60;1.10;;;10.10;99.90;;;;;;5116610;27;39133;-58
2022/09/25 05:43:05;;;;;;;14.90;1.52;;;10.10;99.90;;;;;;5116634;27;37784;-58
2022/09/25 05:45:33;;;;;;;5.10;1.33;;;10.10;99.90;;;;;;5116534;27;37140;-58
2022/09/25 05:48:01;;;;;;;3.88;0.98;;;10.10;99.90;;;;;;5116626;27;36521;-59
2022/09/25 05:50:31;;;;;;;4.05;1.50;;;10.10;99.90;;;;;;5116355;27;39573;-59
2022/09/25 05:53:01;;;;;;;8.35;1.95;;;10.10;99.90;;;;;;5116663;27;38421;-59
2022/09/25 05:55:29;;;;;;;3.47;1.00;;;10.10;99.90;;;;;;5115632;27;38002;-59
2022/09/25 05:58:00;;;;;;;8.98;1.33;;;10.20;99.90;;;;;;5115447;27;36352;-59
2022/09/25 06:00:27;;;;;;;7.47;1.30;;;10.20;99.90;;;;;;5115524;27;37707;-59
2022/09/25 06:02:55;;;;;;;8.32;1.35;;;10.20;99.90;;;;;;5114500;27;39378;-59
2022/09/25 06:05:22;;;;;;;6.57;1.63;;;10.20;99.90;;;;;;5114691;27;36059;-58
2022/09/25 06:07:53;;;;;;;8.18;1.38;;;10.20;99.90;;;;;;5116826;27;37030;-59
2022/09/25 06:10:22;;;;;;;4.22;1.60;;;10.30;99.90;;;;;;5115399;27;37544;-59
2022/09/25 06:12:50;;;;;;;5.45;1.05;;;10.30;99.90;;;;;;5118848;27;38524;-59
2022/09/25 06:15:17;;;;;;;3.85;1.05;;;10.20;99.90;;;;;;5119690;27;37653;-58
2022/09/25 06:17:45;;;;;;;3.83;1.08;;;10.30;99.90;;;;;;5119717;27;37256;-58
2022/09/25 06:20:12;;;;;;;7.40;1.30;;;10.40;99.90;;;;;;5119935;27;38605;-58
2022/09/25 06:22:39;;;;;;;6.45;1.30;;;10.40;99.90;;;;;;5116502;27;38549;-59
2022/09/25 06:25:08;;;;;;;7.47;1.40;;;10.40;99.90;;;;;;5117835;27;36048;-59
2022/09/25 06:27:36;;;;;;;5.00;1.30;;;10.50;99.90;;;;;;5116639;27;37203;-58
2022/09/25 06:30:05;;;;;;;7.95;1.30;;;10.50;99.90;;;;;;5118356;27;39655;-58
2022/09/25 06:32:32;;;;;;;5.70;1.17;;;10.60;99.90;;;;;;5118046;27;36855;-59
2022/09/25 06:34:59;;;;;;;10.45;1.55;;;10.60;99.90;;;;;;5119532;27;37971;-59
2022/09/25 06:37:27;;;;;;;4.57;1.20;;;10.60;99.90;;;;;;5119541;27;36593;-58
2022/09/25 06:39:54;;;;;;;3.90;1.08;;;10.70;99.90;;;;;;5118508;27;40465;-58
2022/09/25 06:42:21;;;;;;;5.47;1.23;;;10.70;99.90;;;;;;5118851;27;40057;-58
2022/09/25 06:44:50;;;;;;;3.65;1.20;;;10.70;99.90;;;;;;5119094;27;36273;-59
2022/09/25 06:47:18;;;;;;;5.53;1.30;;;10.70;99.90;;;;;;5118987;27;35680;-59
2022/09/25 06:49:45;;;;;;;5.40;1.77;;;10.80;99.90;;;;;;5119469;27;37431;-59
2022/09/25 06:52:12;;;;;;;5.65;1.45;;;10.80;99.90;;;;;;5117948;27;37410;-59
2022/09/25 06:54:40;;;;;;;4.43;1.30;;;10.80;99.90;;;;;;5119515;27;36145;-59
2022/09/25 06:57:08;;;;;;;8.88;1.42;;;10.90;99.90;;;;;;5118353;27;37936;-59
2022/09/25 06:59:36;;;;;;;5.07;1.35;;;10.90;99.90;;;;;;5118331;27;37521;-59
2022/09/25 07:03:43;;;;;;;6.30;1.70;;;11.00;99.90;;;;;;5114307;27;39038;-58
2022/09/25 07:04:51;;;;;;;6.47;1.60;;;11.10;99.90;;;;;;5118335;27;38487;-58
2022/09/25 07:07:19;;;;;;;5.70;1.50;;;11.10;99.90;;;;;;5118140;27;38169;-57
2022/09/25 07:09:48;;;;;;;7.18;1.58;;;11.10;99.90;;;;;;5117888;27;38139;-58
2022/09/25 07:12:16;;;;;;;8.25;1.50;;;11.20;99.90;;;;;;5115440;27;39328;-58
2022/09/25 07:14:45;;;;;;;7.15;1.40;;;11.20;99.90;;;;;;5118384;27;38596;-58
2022/09/25 07:17:14;;;;;;;5.18;1.25;;;11.30;99.90;;;;;;5118707;27;36455;-57
2022/09/25 07:19:41;;;;;;;3.13;1.08;;;11.30;99.90;;;;;;5118409;27;37424;-57
2022/09/25 07:22:09;;;;;;;5.65;1.50;;;11.40;99.90;;;;;;5117987;27;38349;-59
2022/09/25 07:24:37;;;;;;;15.55;3.08;;;11.40;99.90;;;;;;5115555;27;37232;-59
2022/09/25 07:27:05;;;;;;;5.15;1.50;;;11.50;99.90;;;;;;5118386;27;35426;-59
2022/09/25 07:29:34;;;;;;;7.70;1.50;;;11.60;99.90;;;;;;5117439;27;37370;-59
2022/09/25 07:32:03;;;;;;;5.50;1.90;;;11.70;99.90;;;;;;5116278;27;37863;-59
2022/09/25 07:34:34;;;;;;;7.03;1.60;;;11.90;99.90;;;;;;5117659;27;36267;-57
2022/09/25 07:37:01;;;;;;;7.80;1.60;;;12.00;99.90;;;;;;5115196;27;37315;-58
2022/09/25 07:39:29;;;;;;;5.47;1.35;;;12.10;99.90;;;;;;5116988;27;38270;-58
2022/09/25 07:41:56;;;;;;;5.45;1.30;;;12.10;99.90;;;;;;5117284;27;38184;-59
2022/09/25 07:44:24;;;;;;;8.18;1.38;;;12.30;99.90;;;;;;5117189;27;37526;-58
2022/09/25 07:46:51;;;;;;;8.45;1.67;;;12.30;99.90;;;;;;5117840;27;36499;-58
2022/09/25 07:49:19;;;;;;;6.50;1.60;;;12.30;99.90;;;;;;5116558;27;38300;-59
2022/09/25 07:51:47;;;;;;;5.53;1.83;;;12.40;99.90;;;;;;5117502;27;39187;-58
2022/09/25 07:54:15;;;;;;;8.65;2.17;;;12.40;99.90;;;;;;5116494;27;37379;-58
2022/09/25 07:56:42;;;;;;;5.97;1.60;;;12.40;99.90;;;;;;5117927;27;36229;-58
2022/09/25 07:59:09;;;;;;;7.22;1.88;;;12.40;99.90;;;;;;5117700;27;36304;-58
2022/09/25 08:01:37;;;;;;;7.32;2.00;;;12.40;99.90;;;;;;5115114;27;38764;-59
2022/09/25 08:04:04;;;;;;;5.82;1.90;;;12.40;99.90;;;;;;5116163;27;37428;-59
2022/09/25 08:06:34;;;;;;;6.10;2.08;;;12.40;99.90;;;;;;5117897;27;35409;-59
2022/09/25 08:09:03;;;;;;;6.72;1.15;;;12.50;99.90;;;;;;5115707;27;38972;-57
2022/09/25 08:11:31;;;;;;;8.80;1.52;;;12.50;99.90;;;;;;5116438;27;37617;-58
2022/09/25 08:13:58;;;;;;;8.63;1.92;;;12.50;99.90;;;;;;5115160;27;37549;-59
2022/09/25 08:16:25;;;;;;;4.75;1.38;;;12.60;99.90;;;;;;5113666;27;35526;-59
2022/09/25 08:18:53;;;;;;;7.30;1.95;;;12.60;99.90;;;;;;5115149;27;38602;-59
2022/09/25 08:21:20;;;;;;;4.35;1.30;;;12.60;99.90;;;;;;5117014;27;38840;-58
2022/09/25 08:23:50;;;;;;;4.60;0.85;;;12.60;99.90;;;;;;5115591;27;37114;-59
2022/09/25 08:26:20;;;;;;;7.82;3.28;;;12.60;99.90;;;;;;5117289;27;36653;-58
2022/09/25 08:28:48;;;;;;;8.82;2.50;;;12.50;99.90;;;;;;5115973;27;36586;-57
2022/09/25 08:31:15;;;;;;;4.95;1.20;;;12.50;99.90;;;;;;5116237;27;37861;-57
2022/09/25 08:33:45;;;;;;;8.15;1.65;;;12.50;99.90;;;;;;5116017;27;37863;-57
2022/09/25 08:36:12;;;;;;;5.55;1.25;;;12.50;99.90;;;;;;5116099;27;36608;-57
2022/09/25 08:38:40;;;;;;;4.88;1.13;;;12.50;99.90;;;;;;5115945;27;38942;-58
2022/09/25 08:41:12;;;;;;;2.95;1.10;;;12.40;99.90;;;;;;5115926;27;37485;-59
2022/09/25 08:43:45;;;;;;;4.63;1.27;;;12.50;99.90;;;;;;5113665;27;36254;-58
2022/09/25 08:49:09;;;;;;;2.92;1.17;;;12.40;99.90;;;;;;5115413;27;38458;-58
2022/09/25 08:51:38;;;;;;;10.48;1.65;;;12.40;99.90;;;;;;5116146;27;39935;-59
2022/09/25 08:54:06;;;;;;;7.30;1.65;;;12.50;99.90;;;;;;5115351;27;39465;-59
2022/09/25 08:56:36;;;;;;;8.25;1.13;;;12.50;99.90;;;;;;5113557;27;36383;-57
2022/09/25 08:59:15;;;;;;;4.95;0.98;;;12.50;99.90;;;;;;5113896;27;38125;-58
2022/09/25 09:01:48;;;;;;;8.35;1.10;;;12.50;99.90;;;;;;5115637;27;38334;-58
2022/09/25 09:04:19;;;;;;;;;;;12.60;99.90;;;;;;5115580;27;36263;-58
2022/09/25 09:06:49;;;;;;;7.88;2.33;;;12.60;99.90;;;;;;5115224;27;36737;-59
2022/09/25 09:09:21;;;;;;;6.63;2.35;;;12.60;99.90;;;;;;5115831;27;38677;-58
2022/09/25 09:11:52;;;;;;;5.18;1.27;;;12.70;99.90;;;;;;5115068;27;39658;-58
2022/09/25 09:14:22;;;;;;;5.68;1.60;;;12.70;99.90;;;;;;5107912;27;37532;-58
2022/09/25 09:16:58;;;;;;;4.35;1.08;;;12.80;99.90;;;;;;5113509;27;36394;-57
2022/09/25 09:19:25;;;;;;;2.97;0.75;;;12.80;99.90;;;;;;5114711;27;37646;-57
2022/09/25 09:22:00;;;;;;;5.50;1.05;;;12.90;99.90;;;;;;5113735;27;37623;-58
2022/09/25 09:24:38;;;;;;;4.70;0.73;;;12.90;99.90;;;;;;5112393;27;36115;-57
2022/09/25 09:27:35;;;;;;;4.55;1.08;;;13.00;99.90;;;;;;5114623;27;35463;-58
2022/09/25 09:30:13;;;;;;;13.02;7.38;;;13.00;99.90;;;;;;5113749;27;38584;-58
2022/09/25 09:32:53;;;;;;;7.80;3.70;;;13.00;99.90;;;;;;5113998;27;38006;-58
2022/09/25 09:35:29;;;;;;;5.50;1.80;;;13.10;99.90;;;;;;5114433;27;37638;-58
2022/09/25 09:38:09;;;;;;;4.30;1.35;;;13.10;99.90;;;;;;5114243;27;37508;-58
2022/09/25 09:40:51;;;;;;;8.38;1.27;;;13.30;99.90;;;;;;5113501;27;37536;-59
2022/09/25 09:43:31;;;;;;;9.02;1.77;;;13.40;99.90;;;;;;5110085;27;37722;-59
2022/09/25 09:46:12;;;;;;;5.00;1.02;;;13.60;99.90;;;;;;5114410;27;36249;-59
2022/09/25 09:48:49;;;;;;;2.58;0.80;;;13.70;99.90;;;;;;5117165;27;35535;-59
2022/09/25 09:51:21;;;;;;;7.75;0.80;;;13.90;99.90;;;;;;5118787;27;37617;-59
2022/09/25 09:53:52;;;;;;;3.95;0.70;;;13.90;99.90;;;;;;5118268;27;36343;-59
2022/09/25 09:56:25;;;;;;;5.13;1.48;;;14.00;99.90;;;;;;5115398;27;39918;-59
2022/09/25 09:58:56;;;;;;;20.42;7.68;;;14.10;99.90;;;;;;5118163;27;36760;-59
2022/09/25 10:01:28;;;;;;;156.48;68.45;;;14.20;99.90;;;;;;5117479;27;36432;-59
2022/09/25 10:04:03;;;;;;;25.15;9.00;;;14.30;99.90;;;;;;5117238;27;37821;-59
2022/09/25 10:06:35;;;;;;;124.55;53.40;;;14.30;99.90;;;;;;5116268;27;37384;-59
2022/09/25 10:09:03;;;;;;;31.13;10.75;;;14.20;99.90;;;;;;5117650;27;37402;-60
2022/09/25 10:11:32;;;;;;;23.25;9.13;;;14.20;99.90;;;;;;5116310;27;37470;-59
2022/09/25 10:14:03;;;;;;;15.93;5.80;;;14.10;99.90;;;;;;5116018;27;37661;-59
2022/09/25 10:16:33;;;;;;;6.95;1.80;;;14.10;99.90;;;;;;5117346;27;38355;-58
2022/09/25 10:19:05;;;;;;;13.13;3.30;;;14.10;99.90;;;;;;5117233;27;35212;-59
2022/09/25 10:21:38;;;;;;;3.78;1.13;;;14.00;99.90;;;;;;5115863;27;36541;-59
2022/09/25 10:24:06;;;;;;;3.75;0.70;;;14.00;99.90;;;;;;5115237;27;37815;-59
2022/09/25 10:26:35;;;;;;;4.60;1.00;;;14.00;99.90;;;;;;5115669;27;37971;-59
2022/09/25 10:29:06;;;;;;;3.63;0.80;;;14.10;99.90;;;;;;5116599;27;36840;-58
2022/09/25 10:31:38;;;;;;;0.75;0.43;;;14.20;99.90;;;;;;5115176;27;37430;-59
2022/09/25 10:34:17;;;;;;;3.03;0.47;;;14.30;99.90;;;;;;5119498;27;37679;-60
2022/09/25 10:36:48;;;;;;;1.00;0.30;;;14.40;99.90;;;;;;5116995;27;38579;-59
2022/09/25 10:39:28;;;;;;;2.97;0.60;;;14.40;99.90;;;;;;5117902;27;36540;-59
2022/09/25 10:41:57;;;;;;;4.47;0.65;;;14.40;99.90;;;;;;5116674;27;37573;-60
2022/09/25 10:44:32;;;;;;;2.78;0.50;;;14.40;99.90;;;;;;5117741;27;37488;-59
2022/09/25 10:50:18;;;;;;;3.13;0.70;;;14.50;99.90;;;;;;5116152;27;38479;-60
2022/09/25 10:52:49;;;;;;;4.15;0.82;;;14.60;99.90;;;;;;5118078;27;37491;-57
2022/09/25 10:55:24;;;;;;;3.22;0.50;;;14.70;99.90;;;;;;5118944;27;36655;-60
2022/09/25 10:58:08;;;;;;;1.60;0.50;;;14.80;99.90;;;;;;5118021;27;37366;-60
2022/09/25 11:00:42;;;;;;;1.27;0.40;;;14.80;99.90;;;;;;5116545;27;36407;-57
2022/09/25 11:03:19;;;;;;;2.10;0.43;;;14.80;99.90;;;;;;5116131;27;38586;-57
2022/09/25 11:05:51;;;;;;;2.67;0.75;;;14.70;99.90;;;;;;5119084;27;37630;-60
2022/09/25 11:08:18;;;;;;;3.03;0.43;;;14.80;99.90;;;;;;5116986;27;38065;-57
2022/09/25 11:10:50;;;;;;;3.15;0.50;;;14.90;99.90;;;;;;5117316;27;37933;-58
2022/09/25 11:13:24;;;;;;;4.00;0.93;;;15.00;99.90;;;;;;5116264;27;37364;-58
2022/09/25 11:15:58;;;;;;;2.33;0.70;;;15.10;99.90;;;;;;5116663;27;38183;-57
2022/09/25 11:18:40;;;;;;;2.88;0.60;;;15.10;99.90;;;;;;5115753;27;37557;-58
2022/09/25 11:21:19;;;;;;;3.38;0.57;;;15.30;99.90;;;;;;5118068;27;37438;-58
2022/09/25 11:24:06;;;;;;;1.52;0.50;;;15.50;99.90;;;;;;5116495;27;37447;-57
2022/09/25 11:26:38;;;;;;;2.30;0.55;;;15.60;99.90;;;;;;5118149;27;37549;-58
2022/09/25 11:29:12;;;;;;;1.00;0.30;;;15.70;99.90;;;;;;5109856;27;38358;-58
2022/09/25 11:31:43;;;;;;;4.60;0.73;;;15.80;99.90;;;;;;5110135;27;36760;-60
2022/09/25 11:34:22;;;;;;;4.47;0.80;;;15.90;99.80;;;;;;5110918;27;37602;-58
2022/09/25 11:37:00;;;;;;;1.60;0.52;;;16.00;99.60;;;;;;5113900;27;37864;-58
2022/09/25 11:42:27;;;;;;;5.90;0.90;;;16.20;98.70;;;;;;5113981;27;36316;-60
2022/09/25 11:45:01;;;;;;;2.65;0.60;;;16.30;98.60;;;;;;5114661;27;36543;-58
2022/09/25 11:47:35;;;;;;;3.00;0.63;;;16.40;98.20;;;;;;5114212;27;38476;-60
2022/09/25 11:50:06;;;;;;;5.22;0.68;;;16.40;98.50;;;;;;5113419;27;37182;-58
2022/09/25 11:52:46;;;;;;;3.20;0.80;;;16.50;98.70;;;;;;5114304;27;37029;-60
2022/09/25 11:55:58;;;;;;;3.63;0.70;;;16.50;98.10;;;;;;5112192;27;36512;-60
2022/09/25 11:58:42;;;;;;;3.33;0.70;;;16.60;97.60;;;;;;5113590;27;37810;-58
2022/09/25 12:01:22;;;;;;;7.78;0.80;;;16.60;98.30;;;;;;5110285;27;37540;-58
2022/09/25 12:04:17;;;;;;;5.03;1.13;;;16.60;97.90;;;;;;5111249;27;37360;-58
2022/09/25 12:07:03;;;;;;;3.67;0.70;;;16.30;97.60;;;;;;5115175;27;36490;-60
2022/09/25 12:09:45;;;;;;;2.10;0.47;;;16.10;97.90;;;;;;5114118;27;37839;-58
2022/09/25 12:12:20;;;;;;;3.35;0.70;;;15.80;97.70;;;;;;5114752;27;38037;-60
2022/09/25 12:15:13;;;;;;;3.42;0.77;;;15.70;98.10;;;;;;5115096;27;36854;-60
2022/09/25 12:17:48;;;;;;;3.63;0.68;;;15.50;98.00;;;;;;5114932;27;38490;-57
2022/09/25 12:20:23;;;;;;;0.80;0.40;;;15.40;98.40;;;;;;5114871;27;40493;-57
2022/09/25 12:23:03;;;;;;;2.58;0.50;;;15.30;98.30;;;;;;5116257;27;37581;-57
2022/09/25 12:25:46;;;;;;;3.05;0.68;;;15.20;98.50;;;;;;5115414;27;36659;-57
2022/09/25 12:28:20;;;;;;;3.03;0.52;;;15.10;98.50;;;;;;5114812;27;38145;-57
2022/09/25 12:30:57;;;;;;;4.20;0.50;;;15.10;98.70;;;;;;5115641;27;38459;-60
2022/09/25 12:33:33;;;;;;;5.00;0.88;;;15.00;98.70;;;;;;5114898;27;38836;-58
2022/09/25 12:36:07;;;;;;;3.60;0.90;;;15.00;99.00;;;;;;5114755;27;37020;-57
2022/09/25 12:38:43;;;;;;;5.82;1.63;;;14.90;99.40;;;;;;5115376;27;38035;-60
2022/09/25 12:41:17;;;;;;;5.78;1.70;;;15.00;99.90;;;;;;5113916;27;37698;-60
2022/09/25 12:43:51;;;;;;;6.30;0.70;;;15.10;99.90;;;;;;5114645;27;37531;-60
2022/09/25 12:46:24;;;;;;;2.85;0.70;;;15.20;99.90;;;;;;5113539;27;35905;-58
2022/09/25 12:48:57;;;;;;;5.18;1.00;;;15.30;99.30;;;;;;5114880;27;38982;-60
2022/09/25 12:51:33;;;;;;;4.00;1.10;;;15.30;99.50;;;;;;5114532;27;38207;-58
2022/09/25 12:54:11;;;;;;;5.13;1.10;;;15.30;99.40;;;;;;5114699;27;36297;-58
2022/09/25 12:56:46;;;;;;;4.45;0.98;;;15.40;99.70;;;;;;5113902;27;37029;-58
2022/09/25 12:59:18;;;;;;;5.05;1.92;;;15.40;99.30;;;;;;5114055;27;37679;-58
2022/09/25 13:01:52;;;;;;;5.43;0.65;;;15.40;98.90;;;;;;5113801;27;39590;-58
2022/09/25 13:04:33;;;;;;;4.75;0.60;;;15.40;98.70;;;;;;5114367;27;38191;-57
2022/09/25 13:07:09;;;;;;;6.95;0.93;;;15.40;98.50;;;;;;5114604;27;36693;-60
2022/09/25 13:09:43;;;;;;;6.28;1.50;;;15.40;98.30;;;;;;5114807;27;36272;-60
2022/09/25 13:12:23;;;;;;;4.78;0.80;;;15.40;98.30;;;;;;5114311;27;39017;-60
2022/09/25 13:14:54;;;;;;;4.03;0.82;;;15.40;98.10;;;;;;5113304;27;38199;-60
2022/09/25 13:17:22;;;;;;;5.07;0.90;;;15.40;98.10;;;;;;5112261;27;37694;-60
2022/09/25 13:19:50;;;;;;;5.82;0.80;;;15.30;97.90;;;;;;5110960;27;38921;-60
2022/09/25 13:22:20;;;;;;;6.15;1.10;;;15.30;98.10;;;;;;5112867;27;38233;-60